Time;durP1;ratioP1;P1;durP2;ratioP2;P2;SDS_P1;SDS_P2;PMS_P1;PMS_P2;Temp;Humidity;BMP_temperature;BMP_pressure;BME280_temperature;BME280_humidity;BME280_pressure;Samples;Min_cycle;Max_cycle;Signal;HPM_P1;HPM_P2
2024/03/04 00:02:22;;;;;;;20.93;13.17;;;20.40;53.20;;;;;;5013541;28;20449;-79
2024/03/04 00:04:51;;;;;;;18.80;12.10;;;20.40;53.30;;;;;;5020148;28;20444;-78
2024/03/04 00:07:19;;;;;;;16.90;12.77;;;20.30;53.30;;;;;;5019813;28;20444;-79
2024/03/04 00:09:47;;;;;;;18.70;12.33;;;20.30;53.50;;;;;;5026098;28;20461;-77
2024/03/04 00:12:15;;;;;;;17.60;12.30;;;20.30;53.40;;;;;;5021258;28;20474;-79
2024/03/04 00:14:45;;;;;;;21.65;13.00;;;20.30;53.40;;;;;;5019753;28;20522;-77
2024/03/04 00:17:13;;;;;;;20.07;13.87;;;20.40;52.90;;;;;;5015990;28;20198;-79
2024/03/04 00:19:42;;;;;;;21.60;12.97;;;20.30;53.60;;;;;;5043980;22;20538;-75
2024/03/04 00:22:10;;;;;;;18.30;12.27;;;20.20;53.60;;;;;;5017777;28;20475;-76
2024/03/04 00:24:38;;;;;;;25.20;12.40;;;20.20;53.60;;;;;;5015260;28;20456;-77
2024/03/04 00:27:06;;;;;;;19.10;13.00;;;20.30;53.60;;;;;;5012315;28;20444;-77
2024/03/04 00:29:35;;;;;;;18.67;12.73;;;20.20;53.60;;;;;;5014866;28;20455;-76
2024/03/04 00:32:04;;;;;;;24.33;13.70;;;20.20;53.70;;;;;;5014950;28;20469;-76
2024/03/04 00:34:33;;;;;;;17.53;12.80;;;20.20;53.40;;;;;;5013754;28;20983;-76
2024/03/04 00:37:02;;;;;;;20.00;11.87;;;20.10;53.70;;;;;;5008734;28;20472;-76
2024/03/04 00:39:30;;;;;;;20.43;12.07;;;20.10;53.70;;;;;;5013949;28;20492;-76
2024/03/04 00:41:58;;;;;;;23.93;13.37;;;20.10;53.70;;;;;;5011882;28;20479;-76
2024/03/04 00:44:26;;;;;;;22.70;13.50;;;20.10;53.60;;;;;;5014275;28;20455;-76
2024/03/04 00:46:54;;;;;;;19.80;13.80;;;20.10;53.80;;;;;;5014124;28;20947;-76
2024/03/04 00:49:23;;;;;;;20.40;12.90;;;20.00;54.30;;;;;;5014444;28;20460;-76
2024/03/04 00:51:51;;;;;;;18.77;12.77;;;20.00;53.80;;;;;;5014541;28;20443;-76
2024/03/04 00:54:20;;;;;;;19.23;13.20;;;20.00;53.90;;;;;;5014196;28;20440;-76
2024/03/04 00:56:47;;;;;;;24.60;14.03;;;20.00;54.00;;;;;;5014334;28;20469;-75
2024/03/04 00:59:17;;;;;;;22.07;13.13;;;20.00;53.90;;;;;;5013575;28;20476;-76
2024/03/04 01:01:45;;;;;;;20.50;13.10;;;20.00;53.90;;;;;;5014442;28;20460;-75
2024/03/04 01:04:14;;;;;;;18.23;12.90;;;19.90;53.90;;;;;;5013941;28;20539;-76
2024/03/04 01:06:44;;;;;;;20.40;13.00;;;19.90;53.90;;;;;;5014061;28;20858;-76
2024/03/04 01:09:12;;;;;;;21.70;13.60;;;19.90;54.00;;;;;;5014187;28;20551;-76
2024/03/04 01:11:40;;;;;;;19.90;13.17;;;19.90;54.00;;;;;;5014045;28;20455;-75
2024/03/04 01:14:08;;;;;;;20.10;13.57;;;19.90;54.00;;;;;;5014017;28;20478;-76
2024/03/04 01:16:36;;;;;;;21.90;13.37;;;19.80;54.10;;;;;;5010838;28;20510;-74
2024/03/04 01:19:04;;;;;;;19.07;12.90;;;19.80;54.10;;;;;;5007820;28;20452;-74
2024/03/04 01:21:32;;;;;;;20.53;13.43;;;19.80;54.00;;;;;;5013967;28;20449;-76
2024/03/04 01:24:02;;;;;;;21.83;13.80;;;19.80;54.30;;;;;;5014113;28;20531;-75
2024/03/04 01:26:30;;;;;;;17.97;12.37;;;19.80;54.00;;;;;;5013580;28;20531;-75
2024/03/04 01:28:58;;;;;;;19.50;14.13;;;19.80;54.20;;;;;;5013350;28;20548;-76
2024/03/04 01:31:26;;;;;;;22.80;13.90;;;19.70;53.80;;;;;;5013190;28;20468;-76
2024/03/04 01:33:54;;;;;;;18.90;13.83;;;19.80;54.10;;;;;;5013230;28;20456;-76
2024/03/04 01:36:22;;;;;;;19.63;13.50;;;19.70;54.20;;;;;;5013242;28;20472;-76
2024/03/04 01:38:50;;;;;;;21.17;14.00;;;19.70;54.00;;;;;;5013622;28;20468;-74
2024/03/04 01:41:20;;;;;;;18.67;13.23;;;19.70;54.10;;;;;;5013738;28;20444;-76
2024/03/04 01:43:47;;;;;;;19.23;13.33;;;19.70;54.20;;;;;;5013431;28;20440;-76
2024/03/04 01:46:15;;;;;;;20.43;12.87;;;19.70;54.30;;;;;;5013569;28;20475;-77
2024/03/04 01:48:43;;;;;;;20.77;13.83;;;19.70;54.20;;;;;;5013176;28;20471;-76
2024/03/04 01:51:11;;;;;;;20.43;13.27;;;19.60;54.20;;;;;;5003597;28;20506;-76
2024/03/04 01:53:41;;;;;;;24.33;13.90;;;19.70;54.40;;;;;;5013120;28;20475;-74
2024/03/04 01:56:09;;;;;;;24.30;13.93;;;19.70;54.30;;;;;;5012859;28;20535;-75
2024/03/04 01:58:42;;;;;;;22.97;15.03;;;19.70;54.20;;;;;;5013164;28;20510;-76
2024/03/04 02:01:10;;;;;;;19.53;13.30;;;19.60;54.30;;;;;;5012859;28;20474;-76
2024/03/04 02:03:38;;;;;;;24.73;14.17;;;19.60;54.20;;;;;;5013150;28;20491;-76
2024/03/04 02:06:08;;;;;;;25.07;14.90;;;19.60;53.90;;;;;;5012783;28;20448;-75
2024/03/04 02:08:36;;;;;;;22.27;14.17;;;19.50;54.00;;;;;;5006458;28;20479;-76
2024/03/04 02:11:05;;;;;;;23.57;14.40;;;19.50;54.20;;;;;;5012459;28;20555;-76
2024/03/04 02:13:33;;;;;;;26.47;15.57;;;19.50;54.20;;;;;;5009771;28;20452;-75
2024/03/04 02:16:03;;;;;;;23.80;14.30;;;19.50;54.20;;;;;;5007770;28;20469;-76
2024/03/04 02:18:30;;;;;;;21.60;14.10;;;19.40;54.30;;;;;;5009447;28;20443;-75
2024/03/04 02:21:00;;;;;;;23.10;14.77;;;19.40;54.20;;;;;;5012175;28;20566;-77
2024/03/04 02:23:29;;;;;;;28.80;14.83;;;19.50;54.30;;;;;;5011700;28;20514;-76
2024/03/04 02:25:57;;;;;;;22.23;13.90;;;19.40;54.30;;;;;;5005056;28;20436;-76
2024/03/04 02:28:27;;;;;;;22.27;13.97;;;19.40;54.20;;;;;;5012972;28;20452;-76
2024/03/04 02:30:58;;;;;;;21.17;14.27;;;19.40;54.20;;;;;;5012482;28;20552;-75
2024/03/04 02:33:26;;;;;;;22.90;14.87;;;19.40;54.30;;;;;;5012761;28;20531;-76
2024/03/04 02:35:54;;;;;;;19.83;14.40;;;19.40;54.10;;;;;;5012355;28;20476;-76
2024/03/04 02:38:22;;;;;;;19.67;14.23;;;19.30;54.20;;;;;;5011879;28;21033;-76
2024/03/04 02:40:53;;;;;;;22.63;14.50;;;19.40;54.40;;;;;;5009815;28;20465;-75
2024/03/04 02:43:21;;;;;;;25.57;14.97;;;19.30;54.50;;;;;;5012452;28;20456;-77
2024/03/04 02:45:49;;;;;;;24.53;16.57;;;19.30;54.80;;;;;;5012699;28;20437;-75
2024/03/04 02:48:18;;;;;;;22.13;15.27;;;19.30;54.20;;;;;;5012389;28;20888;-76
2024/03/04 02:50:46;;;;;;;22.97;14.23;;;19.30;54.30;;;;;;5012052;28;20496;-76
2024/03/04 02:53:13;;;;;;;23.87;14.57;;;19.30;54.50;;;;;;5012140;28;20520;-75
2024/03/04 02:55:42;;;;;;;24.97;15.07;;;19.30;54.40;;;;;;5012148;28;22352;-76
2024/03/04 02:58:11;;;;;;;22.40;14.50;;;19.30;54.40;;;;;;5006264;28;20955;-75
2024/03/04 03:00:39;;;;;;;20.53;14.60;;;19.30;54.40;;;;;;5012115;28;20467;-76
2024/03/04 03:03:08;;;;;;;24.60;15.20;;;19.20;54.40;;;;;;5012290;28;20464;-75
2024/03/04 03:05:35;;;;;;;25.77;15.87;;;19.20;54.10;;;;;;5007008;28;20463;-76
2024/03/04 03:08:04;;;;;;;22.63;14.70;;;19.20;54.50;;;;;;5012162;28;20465;-74
2024/03/04 03:10:32;;;;;;;25.27;15.40;;;19.10;54.40;;;;;;5012478;28;20526;-75
2024/03/04 03:13:00;;;;;;;23.80;15.93;;;19.10;54.50;;;;;;5012276;28;20449;-76
2024/03/04 03:15:30;;;;;;;23.00;15.17;;;19.20;54.30;;;;;;5007149;28;20503;-75
2024/03/04 03:18:00;;;;;;;21.33;13.93;;;19.20;54.30;;;;;;5011621;28;20559;-75
2024/03/04 03:20:28;;;;;;;23.90;15.40;;;19.10;54.50;;;;;;5012044;28;20468;-75
2024/03/04 03:22:56;;;;;;;19.30;13.83;;;19.10;54.60;;;;;;5012210;28;20535;-75
2024/03/04 03:25:26;;;;;;;24.07;14.50;;;19.10;54.50;;;;;;5012076;28;20510;-76
2024/03/04 03:27:54;;;;;;;25.93;16.67;;;19.10;54.40;;;;;;5011875;28;20456;-75
2024/03/04 03:30:23;;;;;;;22.30;15.20;;;19.10;54.50;;;;;;5011601;28;20468;-75
2024/03/04 03:32:52;;;;;;;23.90;15.30;;;19.10;54.40;;;;;;5011964;28;20463;-75
2024/03/04 03:35:20;;;;;;;22.50;14.90;;;19.20;54.50;;;;;;5011901;28;20442;-75
2024/03/04 03:37:48;;;;;;;24.07;14.90;;;19.10;54.50;;;;;;5011543;28;20476;-75
2024/03/04 03:40:15;;;;;;;22.93;14.77;;;19.10;54.60;;;;;;5012135;28;20500;-75
2024/03/04 03:42:43;;;;;;;22.67;14.87;;;19.10;54.40;;;;;;5012016;28;20540;-76
2024/03/04 03:45:11;;;;;;;21.93;14.53;;;19.10;54.60;;;;;;5011577;28;20467;-76
2024/03/04 03:47:39;;;;;;;22.83;15.40;;;19.10;54.60;;;;;;5012223;28;20411;-75
2024/03/04 03:50:09;;;;;;;23.23;15.47;;;19.10;54.50;;;;;;5012130;28;20475;-76
2024/03/04 03:52:37;;;;;;;23.43;15.67;;;19.20;54.50;;;;;;5014515;28;20440;-76
2024/03/04 03:55:06;;;;;;;23.93;15.00;;;19.10;54.60;;;;;;5007468;28;20463;-76
2024/03/04 03:57:34;;;;;;;21.93;15.40;;;19.10;54.50;;;;;;5015333;28;20479;-76
2024/03/04 04:00:18;;;;;;;23.37;14.53;;;19.10;54.70;;;;;;5008630;28;20519;-76
2024/03/04 04:02:46;;;;;;;22.17;15.40;;;19.10;54.70;;;;;;5014824;28;20459;-75
2024/03/04 04:05:15;;;;;;;21.23;15.27;;;19.10;54.50;;;;;;5004142;28;20470;-75
2024/03/04 04:07:43;;;;;;;21.17;14.60;;;19.10;54.60;;;;;;5015190;28;20504;-75
2024/03/04 04:10:11;;;;;;;21.83;14.73;;;19.10;54.70;;;;;;5010370;28;20547;-76
2024/03/04 04:12:39;;;;;;;22.90;15.50;;;19.10;54.70;;;;;;5007375;28;20488;-75
2024/03/04 04:15:07;;;;;;;22.63;15.43;;;19.10;54.70;;;;;;5007129;28;20471;-75
2024/03/04 04:17:35;;;;;;;21.43;14.40;;;19.10;54.70;;;;;;5013480;28;20503;-75
2024/03/04 04:20:06;;;;;;;23.47;14.57;;;19.10;54.80;;;;;;5014794;28;20480;-76
2024/03/04 04:22:36;;;;;;;24.40;15.97;;;19.00;54.80;;;;;;5015076;28;20440;-76
2024/03/04 04:25:05;;;;;;;21.87;15.00;;;19.00;54.80;;;;;;5014705;28;20452;-75
2024/03/04 04:27:33;;;;;;;21.60;15.20;;;19.10;54.80;;;;;;5014760;28;20457;-75
2024/03/04 04:30:01;;;;;;;23.80;14.50;;;19.00;54.60;;;;;;5014288;28;20456;-76
2024/03/04 04:32:28;;;;;;;23.20;14.47;;;19.10;54.90;;;;;;5014548;28;20527;-76
2024/03/04 04:34:56;;;;;;;22.90;14.53;;;19.00;54.80;;;;;;5006352;28;20440;-76
2024/03/04 04:37:24;;;;;;;23.60;15.20;;;19.00;54.80;;;;;;5009072;28;20501;-76
2024/03/04 04:39:54;;;;;;;20.77;14.40;;;19.00;54.60;;;;;;5011672;28;20475;-76
2024/03/04 04:42:23;;;;;;;24.87;16.07;;;19.00;55.00;;;;;;5003584;28;20528;-76
2024/03/04 04:44:51;;;;;;;24.10;15.30;;;19.00;54.90;;;;;;5017207;28;20430;-77
2024/03/04 04:47:22;;;;;;;22.17;15.47;;;19.00;55.00;;;;;;5006289;28;20436;-78
2024/03/04 04:49:51;;;;;;;23.13;15.57;;;19.00;54.90;;;;;;5006493;28;20482;-76
2024/03/04 04:52:19;;;;;;;24.13;15.00;;;19.00;55.00;;;;;;5014728;28;20436;-76
2024/03/04 04:54:47;;;;;;;24.23;15.87;;;19.00;55.00;;;;;;5014349;28;20962;-76
2024/03/04 04:57:19;;;;;;;21.73;15.33;;;19.00;55.00;;;;;;5004244;28;20531;-76
2024/03/04 04:59:47;;;;;;;22.50;14.50;;;19.00;55.00;;;;;;5013782;28;20468;-75
2024/03/04 05:02:15;;;;;;;21.83;14.60;;;18.90;55.00;;;;;;5005871;28;20455;-76
2024/03/04 05:04:44;;;;;;;23.23;15.30;;;18.90;55.10;;;;;;5014601;28;20432;-76
2024/03/04 05:07:25;;;;;;;22.97;15.20;;;19.00;55.00;;;;;;5014309;28;20456;-77
2024/03/04 05:09:53;;;;;;;24.63;16.20;;;19.00;55.20;;;;;;5013227;28;20536;-77
2024/03/04 05:12:22;;;;;;;21.97;14.87;;;19.00;55.00;;;;;;5014439;28;20479;-77
2024/03/04 05:14:50;;;;;;;24.90;15.83;;;18.90;55.10;;;;;;5013838;28;20515;-76
2024/03/04 05:17:20;;;;;;;24.23;15.70;;;18.90;54.90;;;;;;5014079;28;20476;-76
2024/03/04 05:19:48;;;;;;;24.73;17.00;;;18.90;55.10;;;;;;5009562;28;21011;-76
2024/03/04 05:22:16;;;;;;;25.87;17.07;;;18.90;55.10;;;;;;5010602;28;20464;-77
2024/03/04 05:24:45;;;;;;;27.53;16.77;;;18.90;55.10;;;;;;5013459;28;20836;-77
2024/03/04 05:27:13;;;;;;;29.20;19.40;;;18.90;55.20;;;;;;5001454;28;20449;-77
2024/03/04 05:29:43;;;;;;;33.13;21.07;;;18.80;55.20;;;;;;5013883;28;20491;-77
2024/03/04 05:32:11;;;;;;;34.57;20.67;;;18.90;55.10;;;;;;5014400;28;20445;-77
2024/03/04 05:34:40;;;;;;;34.23;20.93;;;18.90;55.10;;;;;;5014578;28;20480;-76
2024/03/04 05:37:08;;;;;;;35.10;22.27;;;18.80;55.20;;;;;;5007151;28;20433;-75
2024/03/04 05:39:35;;;;;;;34.83;22.77;;;18.80;55.30;;;;;;5013732;28;20464;-76
2024/03/04 05:42:03;;;;;;;38.97;23.17;;;18.80;55.30;;;;;;5017988;28;20456;-77
2024/03/04 05:44:31;;;;;;;34.60;23.30;;;18.80;55.20;;;;;;5015563;28;20440;-77
2024/03/04 05:47:01;;;;;;;36.77;22.87;;;18.80;55.20;;;;;;5015980;28;20491;-77
2024/03/04 05:49:29;;;;;;;39.83;24.33;;;18.80;55.30;;;;;;5016514;28;20483;-77
2024/03/04 05:51:58;;;;;;;37.43;24.10;;;18.80;55.20;;;;;;5014033;28;20467;-76
2024/03/04 05:54:26;;;;;;;40.00;24.30;;;18.80;55.30;;;;;;5009710;28;20453;-76
2024/03/04 05:56:54;;;;;;;39.37;24.53;;;18.80;55.20;;;;;;5015865;28;20506;-75
2024/03/04 05:59:22;;;;;;;38.60;24.57;;;18.80;55.30;;;;;;5012247;28;20534;-77
2024/03/04 06:01:51;;;;;;;36.90;24.27;;;18.80;55.30;;;;;;5015642;28;20476;-77
2024/03/04 06:04:20;;;;;;;38.90;24.87;;;18.80;55.40;;;;;;5016098;28;20943;-77
2024/03/04 06:06:48;;;;;;;40.87;24.70;;;18.80;55.40;;;;;;5022852;28;20440;-77
2024/03/04 06:09:17;;;;;;;42.60;26.13;;;18.80;55.30;;;;;;5027503;28;20460;-77
2024/03/04 06:11:46;;;;;;;40.57;24.83;;;18.80;55.20;;;;;;5029105;28;20480;-77
2024/03/04 06:14:14;;;;;;;40.07;23.57;;;18.80;55.50;;;;;;5018994;28;20473;-77
2024/03/04 06:16:42;;;;;;;39.47;24.10;;;18.80;55.30;;;;;;5027739;28;20542;-77
2024/03/04 06:19:11;;;;;;;39.33;24.33;;;18.80;55.50;;;;;;5027303;28;20480;-77
2024/03/04 06:21:42;;;;;;;38.17;24.50;;;18.80;55.40;;;;;;5022045;28;20495;-77
2024/03/04 06:24:10;;;;;;;39.87;25.00;;;18.80;55.40;;;;;;5029797;28;20467;-77
2024/03/04 06:26:39;;;;;;;37.40;24.37;;;18.80;56.00;;;;;;5032013;28;20468;-75
2024/03/04 06:29:07;;;;;;;38.80;23.30;;;18.80;55.40;;;;;;5028951;28;20503;-77
2024/03/04 06:31:35;;;;;;;38.30;24.63;;;18.80;55.50;;;;;;5030721;28;20436;-77
2024/03/04 06:34:03;;;;;;;39.13;24.27;;;18.80;55.50;;;;;;5032571;28;20504;-76
2024/03/04 06:36:47;;;;;;;37.90;23.87;;;18.80;55.40;;;;;;5035765;28;20440;-77
2024/03/04 06:39:16;;;;;;;37.83;23.60;;;18.80;55.30;;;;;;5029813;28;20508;-76
2024/03/04 06:41:44;;;;;;;35.87;23.33;;;18.80;55.30;;;;;;5030683;28;20432;-77
2024/03/04 06:44:12;;;;;;;37.07;23.93;;;18.80;55.40;;;;;;5028188;28;20452;-77
2024/03/04 06:46:40;;;;;;;36.83;24.33;;;18.80;55.50;;;;;;5030123;28;20444;-77
2024/03/04 06:49:08;;;;;;;35.50;22.30;;;18.80;55.30;;;;;;5017314;28;20436;-78
2024/03/04 06:51:36;;;;;;;34.80;22.63;;;18.80;55.40;;;;;;5012276;28;20437;-77
2024/03/04 06:54:05;;;;;;;35.17;23.23;;;18.80;55.30;;;;;;5012636;28;20443;-78
2024/03/04 06:56:34;;;;;;;36.40;22.83;;;18.80;55.30;;;;;;5012641;28;20508;-75
2024/03/04 06:59:02;;;;;;;35.10;21.67;;;18.80;55.30;;;;;;5012214;28;20495;-76
2024/03/04 07:01:30;;;;;;;33.70;21.77;;;18.80;55.40;;;;;;5004977;28;20502;-75
2024/03/04 07:03:58;;;;;;;33.70;21.37;;;18.80;55.40;;;;;;5012576;28;20951;-76
2024/03/04 07:06:27;;;;;;;36.80;22.97;;;18.90;55.50;;;;;;5012501;28;20444;-77
2024/03/04 07:08:56;;;;;;;34.73;21.83;;;18.90;55.40;;;;;;5012152;28;20436;-77
2024/03/04 07:11:25;;;;;;;32.50;21.30;;;18.90;55.30;;;;;;5012591;28;20881;-77
2024/03/04 07:13:53;;;;;;;32.03;21.00;;;18.90;55.40;;;;;;5012676;28;20446;-77
2024/03/04 07:16:21;;;;;;;34.00;20.87;;;19.00;55.40;;;;;;5012503;28;20535;-77
2024/03/04 07:18:49;;;;;;;35.13;21.90;;;19.00;55.40;;;;;;5012050;28;20472;-77
2024/03/04 07:21:20;;;;;;;29.50;20.43;;;19.00;55.40;;;;;;5012565;28;20468;-75
2024/03/04 07:23:48;;;;;;;32.07;21.20;;;19.00;55.40;;;;;;5012319;28;20479;-76
2024/03/04 07:26:16;;;;;;;31.97;20.93;;;19.00;55.40;;;;;;5014605;28;20436;-77
2024/03/04 07:28:49;;;;;;;31.90;21.67;;;19.00;55.50;;;;;;5016426;28;20417;-77
2024/03/04 07:31:16;;;;;;;31.93;21.27;;;19.10;55.40;;;;;;5016237;28;20434;-77
2024/03/04 07:33:46;;;;;;;34.17;22.30;;;19.00;55.30;;;;;;5016579;28;20440;-77
2024/03/04 07:36:14;;;;;;;31.70;20.90;;;19.00;55.20;;;;;;5016056;28;20436;-77
2024/03/04 07:38:44;;;;;;;33.47;20.83;;;19.00;55.30;;;;;;5016289;28;20464;-76
2024/03/04 07:41:12;;;;;;;31.33;20.13;;;19.10;55.20;;;;;;5016114;28;20460;-77
2024/03/04 07:43:40;;;;;;;32.33;21.10;;;19.10;55.50;;;;;;5016096;28;20522;-77
2024/03/04 07:46:10;;;;;;;29.60;19.60;;;19.10;55.40;;;;;;5015207;28;20432;-77
2024/03/04 07:48:38;;;;;;;32.17;21.20;;;19.10;55.30;;;;;;5015275;28;20433;-77
2024/03/04 07:51:06;;;;;;;30.57;20.27;;;19.10;55.30;;;;;;5015752;28;20532;-77
2024/03/04 07:53:34;;;;;;;30.37;20.17;;;19.20;55.20;;;;;;5015687;28;20440;-76
2024/03/04 07:56:02;;;;;;;29.47;19.60;;;19.20;55.20;;;;;;5015602;28;20455;-76
2024/03/04 07:58:30;;;;;;;28.40;19.40;;;19.20;55.20;;;;;;5015660;28;20468;-76
2024/03/04 08:00:58;;;;;;;30.37;19.57;;;19.20;55.20;;;;;;5012248;28;20499;-76
2024/03/04 08:03:29;;;;;;;30.60;19.83;;;19.20;55.40;;;;;;4998953;28;20444;-75
2024/03/04 08:05:58;;;;;;;28.43;18.70;;;19.20;55.20;;;;;;5015288;28;20498;-75
2024/03/04 08:08:26;;;;;;;27.10;18.30;;;19.20;55.30;;;;;;5015310;28;20471;-75
2024/03/04 08:10:54;;;;;;;25.40;17.67;;;19.20;55.30;;;;;;5001601;28;20465;-75
2024/03/04 08:13:22;;;;;;;27.20;18.23;;;19.20;55.40;;;;;;5004148;28;20448;-76
2024/03/04 08:15:51;;;;;;;28.70;19.43;;;19.20;55.20;;;;;;5006884;28;20449;-76
2024/03/04 08:18:19;;;;;;;27.87;19.17;;;19.30;55.40;;;;;;5015106;28;20433;-76
2024/03/04 08:20:52;;;;;;;30.10;19.27;;;19.30;55.30;;;;;;5014666;28;20497;-76
2024/03/04 08:23:20;;;;;;;29.23;19.73;;;19.40;55.30;;;;;;5015288;28;20490;-76
2024/03/04 08:25:47;;;;;;;29.13;18.53;;;19.40;55.30;;;;;;5014392;28;20448;-75
2024/03/04 08:28:15;;;;;;;27.00;18.50;;;19.40;55.20;;;;;;5013701;28;20420;-76
2024/03/04 08:30:58;;;;;;;26.93;18.00;;;19.40;55.30;;;;;;5010713;28;20471;-77
2024/03/04 08:33:26;;;;;;;25.60;17.70;;;19.40;55.30;;;;;;5011749;28;20433;-76
2024/03/04 08:35:56;;;;;;;26.23;17.90;;;19.50;55.00;;;;;;5015026;28;20445;-76
2024/03/04 08:38:26;;;;;;;28.93;18.80;;;19.50;55.00;;;;;;5003549;28;20523;-76
2024/03/04 08:40:54;;;;;;;24.60;16.90;;;19.50;55.10;;;;;;5015149;28;20480;-76
2024/03/04 08:43:22;;;;;;;25.27;17.27;;;19.60;55.10;;;;;;5005134;28;20445;-75
2024/03/04 08:45:51;;;;;;;28.70;17.43;;;19.50;54.80;;;;;;5015101;28;20544;-76
2024/03/04 08:48:19;;;;;;;26.40;17.50;;;19.60;54.90;;;;;;5011354;28;20456;-76
2024/03/04 08:50:49;;;;;;;23.80;16.20;;;19.60;55.00;;;;;;5014316;28;20465;-76
2024/03/04 08:53:19;;;;;;;23.13;16.87;;;19.70;55.00;;;;;;5014507;28;20453;-76
2024/03/04 08:55:47;;;;;;;25.60;18.13;;;19.70;54.90;;;;;;5012979;28;20429;-76
2024/03/04 08:58:15;;;;;;;25.83;17.63;;;19.80;54.80;;;;;;5014396;28;20527;-76
2024/03/04 09:00:44;;;;;;;22.80;16.67;;;19.80;54.80;;;;;;5015235;28;20476;-76
2024/03/04 09:03:12;;;;;;;23.60;17.00;;;19.80;54.60;;;;;;5014977;28;20464;-76
2024/03/04 09:05:42;;;;;;;22.60;16.73;;;19.80;54.70;;;;;;5012621;28;20475;-76
2024/03/04 09:08:11;;;;;;;25.43;17.73;;;19.80;54.60;;;;;;5013594;28;20817;-75
2024/03/04 09:10:40;;;;;;;24.77;16.63;;;19.90;54.60;;;;;;5020704;28;20567;-76
2024/03/04 09:13:08;;;;;;;25.30;16.70;;;19.90;54.70;;;;;;5010120;28;20447;-75
2024/03/04 09:15:36;;;;;;;25.40;17.63;;;20.00;55.20;;;;;;5006362;28;20503;-74
2024/03/04 09:18:05;;;;;;;22.37;15.87;;;20.10;55.20;;;;;;5013702;28;20476;-75
2024/03/04 09:20:33;;;;;;;24.40;16.83;;;20.10;55.20;;;;;;5011496;28;20491;-75
2024/03/04 09:23:01;;;;;;;22.17;16.50;;;20.10;55.20;;;;;;5011577;28;20483;-75
2024/03/04 09:25:29;;;;;;;25.20;16.93;;;20.20;55.10;;;;;;5006462;28;20536;-73
2024/03/04 09:27:59;;;;;;;22.90;16.23;;;20.20;55.10;;;;;;5013448;28;20455;-75
2024/03/04 09:30:27;;;;;;;24.27;17.13;;;20.20;54.90;;;;;;5005949;28;20494;-76
2024/03/04 09:32:55;;;;;;;24.47;15.80;;;20.20;55.00;;;;;;5012176;28;20620;-76
2024/03/04 09:35:23;;;;;;;25.73;16.97;;;20.20;54.90;;;;;;5009600;28;20452;-76
2024/03/04 09:37:51;;;;;;;23.37;17.00;;;20.20;54.90;;;;;;5005547;28;20469;-75
2024/03/04 09:40:19;;;;;;;21.60;15.80;;;20.30;54.90;;;;;;5011624;28;20487;-76
2024/03/04 09:42:48;;;;;;;22.70;15.00;;;20.30;55.10;;;;;;5005246;28;20440;-76
2024/03/04 09:45:18;;;;;;;21.97;15.37;;;20.40;55.10;;;;;;5011303;28;20523;-76
2024/03/04 09:47:48;;;;;;;25.53;15.73;;;20.50;54.90;;;;;;5009933;28;20472;-75
2024/03/04 09:50:16;;;;;;;22.80;15.70;;;20.60;54.80;;;;;;5003353;28;20460;-76
2024/03/04 09:52:44;;;;;;;23.03;16.33;;;20.70;54.70;;;;;;5007957;28;20548;-75
2024/03/04 09:55:12;;;;;;;21.53;15.67;;;20.80;54.80;;;;;;5000966;28;20467;-75
2024/03/04 09:57:40;;;;;;;24.10;17.40;;;20.90;54.70;;;;;;5005528;28;20955;-75
2024/03/04 10:00:13;;;;;;;25.10;17.37;;;20.90;54.40;;;;;;5011930;28;20455;-76
2024/03/04 10:02:43;;;;;;;24.20;16.93;;;20.90;54.30;;;;;;5004353;28;20508;-76
2024/03/04 10:05:12;;;;;;;26.13;17.77;;;20.90;54.60;;;;;;5009569;28;20536;-75
2024/03/04 10:07:41;;;;;;;22.13;16.60;;;21.00;54.40;;;;;;5007361;28;20451;-75
2024/03/04 10:10:12;;;;;;;26.13;18.30;;;20.90;54.40;;;;;;5009049;28;20491;-75
2024/03/04 10:12:40;;;;;;;22.80;17.50;;;20.90;54.60;;;;;;5003998;28;20456;-75
2024/03/04 10:15:10;;;;;;;26.70;17.97;;;21.00;54.60;;;;;;5011936;28;20509;-76
2024/03/04 10:17:39;;;;;;;27.40;18.77;;;20.90;54.50;;;;;;5011570;28;20451;-74
2024/03/04 10:20:11;;;;;;;25.80;19.63;;;21.00;54.70;;;;;;5011895;28;20451;-75
2024/03/04 10:22:40;;;;;;;29.67;20.47;;;21.00;54.60;;;;;;5009069;28;20459;-73
2024/03/04 10:25:09;;;;;;;29.13;19.90;;;21.00;54.60;;;;;;5008566;28;20520;-76
2024/03/04 10:27:39;;;;;;;29.03;19.53;;;21.00;54.60;;;;;;5011326;28;20519;-75
2024/03/04 10:30:10;;;;;;;31.60;20.07;;;21.10;54.70;;;;;;5007235;28;20470;-75
2024/03/04 10:32:38;;;;;;;31.20;19.80;;;21.00;54.60;;;;;;5011161;28;20437;-75
2024/03/04 10:35:09;;;;;;;28.70;19.60;;;21.00;54.70;;;;;;5011460;28;20513;-74
2024/03/04 10:37:37;;;;;;;30.93;21.23;;;21.00;54.80;;;;;;5003869;28;20466;-75
2024/03/04 10:40:09;;;;;;;29.90;20.47;;;21.00;54.90;;;;;;5009454;28;20568;-75
2024/03/04 10:42:37;;;;;;;28.67;20.30;;;21.00;54.80;;;;;;5004095;28;20424;-74
2024/03/04 10:45:06;;;;;;;30.90;20.60;;;21.00;54.80;;;;;;5007130;28;20519;-74
2024/03/04 10:47:34;;;;;;;31.83;20.20;;;21.00;54.90;;;;;;5010430;28;20484;-72
2024/03/04 10:50:04;;;;;;;33.43;21.97;;;21.00;55.00;;;;;;5015261;28;20460;-75
2024/03/04 10:52:33;;;;;;;30.97;20.47;;;20.90;55.00;;;;;;5013095;28;20506;-74
2024/03/04 10:55:01;;;;;;;31.10;21.17;;;20.90;54.90;;;;;;5001484;28;20433;-74
2024/03/04 10:57:30;;;;;;;30.43;20.60;;;20.90;54.90;;;;;;5008937;28;20419;-74
2024/03/04 10:59:58;;;;;;;31.97;22.13;;;21.00;55.10;;;;;;5010513;28;20464;-75
2024/03/04 11:02:39;;;;;;;32.00;22.00;;;21.00;55.00;;;;;;5009851;28;20519;-75
2024/03/04 11:05:09;;;;;;;32.53;22.80;;;21.00;55.00;;;;;;5012395;28;20523;-74
2024/03/04 11:07:42;;;;;;;32.40;22.53;;;21.00;54.90;;;;;;5007937;28;20444;-76
2024/03/04 11:10:24;;;;;;;35.03;21.43;;;21.10;54.90;;;;;;5004720;28;20464;-76
2024/03/04 11:12:59;;;;;;;32.37;21.30;;;21.10;55.10;;;;;;4999024;28;20648;-76
2024/03/04 11:15:27;;;;;;;33.53;22.17;;;21.10;55.00;;;;;;5007495;28;20436;-77
2024/03/04 11:17:57;;;;;;;36.03;22.43;;;21.10;55.00;;;;;;5004399;28;20542;-75
2024/03/04 11:20:25;;;;;;;32.17;22.60;;;21.10;55.10;;;;;;5005549;28;20542;-74
2024/03/04 11:22:54;;;;;;;32.27;22.23;;;21.10;55.10;;;;;;5003492;28;20545;-75
2024/03/04 11:25:22;;;;;;;31.33;21.37;;;21.10;55.10;;;;;;5002449;28;20437;-75
2024/03/04 11:27:50;;;;;;;35.63;22.67;;;21.10;55.10;;;;;;4999221;28;20436;-74
2024/03/04 11:30:19;;;;;;;35.73;22.10;;;21.10;55.20;;;;;;5006796;28;20523;-75
2024/03/04 11:32:47;;;;;;;33.63;23.40;;;21.10;55.20;;;;;;5003101;28;20499;-76
2024/03/04 11:35:26;;;;;;;34.17;23.30;;;21.10;55.20;;;;;;5001933;28;20438;-75
2024/03/04 11:38:05;;;;;;;34.07;22.53;;;21.60;55.90;;;;;;5010042;28;20444;-76
2024/03/04 11:40:34;;;;;;;34.60;22.73;;;22.00;54.80;;;;;;5009615;28;20542;-75
2024/03/04 11:43:02;;;;;;;35.50;23.03;;;22.20;54.10;;;;;;5009934;28;20444;-75
2024/03/04 11:45:31;;;;;;;32.60;24.07;;;22.20;54.20;;;;;;5001395;28;20412;-75
2024/03/04 11:47:59;;;;;;;32.47;22.50;;;22.10;54.10;;;;;;4998522;28;20432;-75
2024/03/04 11:50:46;;;;;;;33.17;23.07;;;22.00;54.00;;;;;;4991670;28;20480;-74
2024/03/04 11:53:28;;;;;;;36.00;22.93;;;21.80;54.20;;;;;;5003112;28;20437;-74
2024/03/04 11:55:56;;;;;;;39.03;23.57;;;21.80;54.40;;;;;;5000702;28;20520;-75
2024/03/04 11:58:24;;;;;;;34.63;24.63;;;21.80;54.50;;;;;;5010432;28;20459;-74
2024/03/04 12:00:52;;;;;;;33.07;23.17;;;21.80;54.70;;;;;;5003553;28;21069;-74
2024/03/04 12:03:34;;;;;;;37.07;24.07;;;21.80;54.70;;;;;;4998422;28;20448;-74
2024/03/04 12:06:02;;;;;;;34.20;23.27;;;21.80;54.60;;;;;;5004483;28;20403;-74
2024/03/04 12:08:32;;;;;;;33.43;24.40;;;21.80;54.60;;;;;;5004670;28;20499;-74
2024/03/04 12:11:22;;;;;;;34.50;22.80;;;21.80;54.50;;;;;;5004012;28;20460;-74
2024/03/04 12:13:50;;;;;;;34.97;24.30;;;21.80;54.60;;;;;;5005107;28;20471;-74
2024/03/04 12:16:18;;;;;;;35.40;24.67;;;21.80;54.60;;;;;;5014012;28;20447;-74
2024/03/04 12:18:49;;;;;;;36.93;24.30;;;21.70;54.60;;;;;;5013747;28;20495;-75
2024/03/04 12:21:18;;;;;;;34.83;23.90;;;21.80;54.70;;;;;;5009916;28;20498;-75
2024/03/04 12:23:48;;;;;;;36.10;25.27;;;21.80;54.80;;;;;;5006173;28;20468;-75
2024/03/04 12:26:16;;;;;;;34.60;23.83;;;21.80;54.70;;;;;;5002269;28;20412;-75
2024/03/04 12:28:44;;;;;;;34.40;24.13;;;21.80;54.60;;;;;;5009147;28;20540;-75
2024/03/04 12:31:12;;;;;;;38.27;25.43;;;21.80;54.70;;;;;;5011520;28;20456;-75
2024/03/04 12:33:40;;;;;;;36.93;25.77;;;21.80;54.70;;;;;;5006318;28;20430;-75
2024/03/04 12:36:08;;;;;;;34.53;24.17;;;21.80;54.90;;;;;;5000128;28;20548;-75
2024/03/04 12:38:37;;;;;;;35.57;23.27;;;21.80;54.70;;;;;;5008363;28;20419;-75